createdAt,value
2024-04-12T00:00:17.831Z,825.00
2024-04-12T00:01:17.823Z,829.00
2024-04-12T00:02:17.879Z,827.00
2024-04-12T00:03:17.933Z,827.00
2024-04-12T00:04:18.038Z,826.00
2024-04-12T00:05:18.022Z,823.00
2024-04-12T00:06:18.142Z,824.00
2024-04-12T00:07:19.370Z,827.00
2024-04-12T00:08:18.200Z,826.00
2024-04-12T00:09:18.253Z,827.00
2024-04-12T00:10:18.268Z,827.00
2024-04-12T00:11:18.538Z,824.00
2024-04-12T00:12:18.370Z,825.00
2024-04-12T00:13:18.391Z,824.00
2024-04-12T00:14:18.500Z,824.00
2024-04-12T00:15:19.421Z,823.00
2024-04-12T00:16:18.592Z,823.00
2024-04-12T00:17:18.712Z,825.00
2024-04-12T00:18:18.550Z,826.00
2024-04-12T00:19:18.585Z,824.00
2024-04-12T00:20:18.611Z,821.00
2024-04-12T00:21:18.689Z,820.00
2024-04-12T00:22:18.723Z,820.00
2024-04-12T00:23:18.798Z,820.00
2024-04-12T00:24:18.883Z,818.00
2024-04-12T00:25:18.944Z,818.00
2024-04-12T00:26:18.959Z,819.00
2024-04-12T00:27:19.032Z,820.00
2024-04-12T00:28:19.074Z,819.00
2024-04-12T00:29:19.139Z,823.00
2024-04-12T00:30:19.239Z,822.00
2024-04-12T00:31:19.246Z,818.00
2024-04-12T00:32:19.348Z,823.00
2024-04-12T00:33:19.457Z,824.00
2024-04-12T00:34:19.392Z,824.00
2024-04-12T00:35:19.449Z,822.00
2024-04-12T00:36:19.565Z,822.00
2024-04-12T00:37:19.643Z,824.00
2024-04-12T00:38:19.622Z,820.00
2024-04-12T00:39:19.685Z,814.00
2024-04-12T00:40:19.744Z,818.00
2024-04-12T00:41:19.807Z,817.00
2024-04-12T00:42:19.891Z,815.00
2024-04-12T00:43:20.076Z,815.00
2024-04-12T00:44:20.004Z,817.00
2024-04-12T00:45:20.103Z,820.00
2024-04-12T00:46:20.143Z,820.00
2024-04-12T00:47:20.229Z,818.00
2024-04-12T00:48:20.330Z,820.00
2024-04-12T00:49:20.323Z,821.00
2024-04-12T00:50:20.347Z,819.00
2024-04-12T00:51:20.449Z,816.00
2024-04-12T00:52:20.492Z,813.00
2024-04-12T00:53:20.560Z,812.00
2024-04-12T00:54:20.604Z,814.00
2024-04-12T00:55:20.654Z,816.00
2024-04-12T00:56:20.760Z,814.00
2024-04-12T00:57:20.776Z,816.00
2024-04-12T00:58:20.843Z,818.00
2024-04-12T00:59:20.925Z,817.00
2024-04-12T01:00:21.488Z,818.00
2024-04-12T01:01:21.028Z,818.00
2024-04-12T01:02:21.111Z,816.00
2024-04-12T01:03:21.220Z,814.00
2024-04-12T01:04:21.225Z,814.00
2024-04-12T01:05:21.433Z,811.00
2024-04-12T01:06:21.309Z,811.00
2024-04-12T01:07:21.356Z,808.00
2024-04-12T01:08:21.413Z,806.00
2024-04-12T01:09:21.656Z,809.00
2024-04-12T01:10:21.624Z,811.00
2024-04-12T01:11:21.835Z,814.00
2024-04-12T01:12:21.692Z,817.00
2024-04-12T01:13:21.756Z,819.00
2024-04-12T01:14:21.801Z,816.00
2024-04-12T01:15:21.842Z,815.00
2024-04-12T01:16:21.926Z,809.00
2024-04-12T01:17:22.040Z,809.00
2024-04-12T01:18:22.689Z,810.00
2024-04-12T01:19:22.119Z,808.00
2024-04-12T01:20:22.219Z,807.00
2024-04-12T01:21:22.263Z,808.00
2024-04-12T01:22:22.339Z,811.00
2024-04-12T01:23:22.384Z,812.00
2024-04-12T01:24:22.448Z,813.00
2024-04-12T01:25:22.511Z,813.00
2024-04-12T01:26:22.568Z,815.00
2024-04-12T01:27:22.632Z,813.00
2024-04-12T01:28:22.679Z,813.00
2024-04-12T01:29:22.721Z,813.00
2024-04-12T01:30:22.792Z,816.00
2024-04-12T01:31:22.844Z,817.00
2024-04-12T01:32:22.962Z,813.00
2024-04-12T01:33:22.986Z,810.00
2024-04-12T01:34:23.023Z,814.00
2024-04-12T01:35:23.077Z,813.00
2024-04-12T01:36:23.174Z,812.00
2024-04-12T01:37:23.202Z,814.00
2024-04-12T01:38:23.259Z,814.00
2024-04-12T01:39:23.365Z,812.00
2024-04-12T01:40:23.418Z,812.00
2024-04-12T01:41:23.484Z,810.00
2024-04-12T01:42:23.536Z,812.00
2024-04-12T01:43:25.540Z,812.00
2024-04-12T01:44:23.663Z,814.00
2024-04-12T01:45:23.830Z,814.00
2024-04-12T01:46:23.766Z,814.00
2024-04-12T01:47:23.843Z,815.00
2024-04-12T01:48:24.146Z,813.00
2024-04-12T01:49:24.055Z,811.00
2024-04-12T01:50:24.366Z,807.00
2024-04-12T01:51:23.963Z,807.00
2024-04-12T01:52:24.031Z,805.00
2024-04-12T01:53:24.181Z,803.00
2024-04-12T01:54:24.095Z,803.00
2024-04-12T01:55:24.160Z,804.00
2024-04-12T01:56:24.211Z,805.00
2024-04-12T01:57:24.207Z,804.00
2024-04-12T01:58:24.255Z,803.00
2024-04-12T01:59:24.318Z,800.00
2024-04-12T02:00:24.330Z,801.00
2024-04-12T02:01:24.409Z,804.00
2024-04-12T02:02:24.423Z,808.00
2024-04-12T02:03:24.531Z,810.00
2024-04-12T02:04:24.613Z,811.00
2024-04-12T02:05:24.569Z,812.00
2024-04-12T02:06:24.602Z,812.00
2024-04-12T02:07:24.625Z,815.00
2024-04-12T02:08:24.690Z,813.00
2024-04-12T02:09:24.746Z,811.00
2024-04-12T02:10:24.855Z,811.00
2024-04-12T02:11:25.160Z,812.00
2024-04-12T02:12:24.885Z,809.00
2024-04-12T02:13:25.118Z,810.00
2024-04-12T02:14:24.948Z,806.00
2024-04-12T02:15:24.990Z,804.00
2024-04-12T02:16:25.069Z,808.00
2024-04-12T02:17:25.104Z,805.00
2024-04-12T02:18:25.566Z,807.00
2024-04-12T02:19:25.173Z,807.00
2024-04-12T02:20:25.231Z,807.00
2024-04-12T02:21:25.292Z,810.00
2024-04-12T02:22:25.333Z,811.00
2024-04-12T02:23:25.383Z,809.00
2024-04-12T02:24:25.413Z,812.00
2024-04-12T02:25:25.492Z,812.00
2024-04-12T02:26:25.950Z,814.00
2024-04-12T02:27:25.571Z,815.00
2024-04-12T02:28:25.617Z,814.00
2024-04-12T02:29:25.701Z,812.00
2024-04-12T02:30:25.738Z,809.00
2024-04-12T02:31:25.769Z,808.00
2024-04-12T02:32:25.897Z,807.00
2024-04-12T02:33:25.984Z,806.00
2024-04-12T02:34:25.937Z,803.00
2024-04-12T02:35:26.004Z,802.00
2024-04-12T02:36:26.011Z,802.00
2024-04-12T02:37:26.060Z,803.00
2024-04-12T02:38:26.165Z,805.00
2024-04-12T02:39:26.178Z,804.00
2024-04-12T02:40:26.212Z,805.00
2024-04-12T02:41:26.249Z,803.00
2024-04-12T02:42:26.302Z,802.00
2024-04-12T02:43:26.369Z,802.00
2024-04-12T02:44:26.583Z,802.00
2024-04-12T02:45:26.485Z,801.00
2024-04-12T02:46:26.587Z,803.00
2024-04-12T02:47:26.635Z,802.00
2024-04-12T02:48:26.786Z,800.00
2024-04-12T02:49:26.758Z,801.00
2024-04-12T02:50:26.815Z,799.00
2024-04-12T02:51:26.890Z,796.00
2024-04-12T02:52:26.935Z,797.00
2024-04-12T02:53:27.008Z,796.00
2024-04-12T02:54:27.337Z,797.00
2024-04-12T02:55:27.155Z,796.00
2024-04-12T02:56:27.197Z,793.00
2024-04-12T02:57:27.276Z,792.00
2024-04-12T02:58:27.341Z,790.00
2024-04-12T02:59:27.392Z,794.00
2024-04-12T03:00:27.560Z,796.00
2024-04-12T03:01:27.700Z,799.00
2024-04-12T03:02:27.665Z,797.00
2024-04-12T03:03:27.745Z,796.00
2024-04-12T03:04:27.740Z,795.00
2024-04-12T03:05:27.847Z,794.00
2024-04-12T03:06:27.894Z,792.00
2024-04-12T03:07:27.933Z,791.00
2024-04-12T03:08:28.012Z,791.00
2024-04-12T03:09:28.075Z,792.00
2024-04-12T03:10:28.158Z,792.00
2024-04-12T03:11:28.235Z,795.00
2024-04-12T03:12:28.314Z,797.00
2024-04-12T03:13:28.362Z,796.00
2024-04-12T03:14:28.431Z,798.00
2024-04-12T03:15:28.560Z,797.00
2024-04-12T03:16:28.601Z,794.00
2024-04-12T03:17:28.671Z,792.00
2024-04-12T03:18:29.224Z,794.00
2024-04-12T03:19:28.786Z,792.00
2024-04-12T03:20:28.874Z,791.00
2024-04-12T03:21:28.995Z,793.00
2024-04-12T03:22:29.012Z,791.00
2024-04-12T03:23:29.095Z,789.00
2024-04-12T03:24:29.145Z,789.00
2024-04-12T03:25:29.212Z,793.00
2024-04-12T03:26:29.330Z,793.00
2024-04-12T03:27:29.367Z,794.00
2024-04-12T03:28:29.451Z,790.00
2024-04-12T03:29:29.537Z,791.00
2024-04-12T03:30:29.585Z,791.00
2024-04-12T03:31:29.662Z,792.00
2024-04-12T03:32:29.754Z,792.00
2024-04-12T03:33:29.945Z,789.00
2024-04-12T03:34:29.876Z,789.00
2024-04-12T03:35:29.950Z,789.00
2024-04-12T03:36:30.024Z,789.00
2024-04-12T03:37:30.102Z,788.00
2024-04-12T03:38:30.165Z,790.00
2024-04-12T03:39:30.224Z,789.00
2024-04-12T03:40:30.315Z,788.00
2024-04-12T03:41:30.388Z,790.00
2024-04-12T03:42:30.445Z,793.00
2024-04-12T03:43:30.515Z,794.00
2024-04-12T03:44:30.620Z,789.00
2024-04-12T03:45:30.674Z,783.00
2024-04-12T03:46:30.751Z,788.00
2024-04-12T03:47:30.878Z,787.00
2024-04-12T03:48:31.028Z,790.00
2024-04-12T03:49:30.951Z,788.00
2024-04-12T03:50:31.035Z,785.00
2024-04-12T03:51:31.096Z,784.00
2024-04-12T03:52:31.165Z,782.00
2024-04-12T03:53:31.252Z,784.00
2024-04-12T03:54:31.309Z,781.00
2024-04-12T03:55:31.396Z,780.00
2024-04-12T03:56:31.444Z,780.00
2024-04-12T03:57:31.569Z,783.00
2024-04-12T03:58:31.590Z,786.00
2024-04-12T03:59:31.654Z,784.00
2024-04-12T04:00:31.731Z,782.00
2024-04-12T04:01:31.826Z,782.00
2024-04-12T04:02:31.879Z,781.00
2024-04-12T04:03:31.968Z,778.00
2024-04-12T04:04:31.998Z,783.00
2024-04-12T04:05:32.083Z,781.00
2024-04-12T04:06:32.124Z,781.00
2024-04-12T04:07:32.210Z,779.00
2024-04-12T04:08:32.259Z,779.00
2024-04-12T04:09:32.323Z,777.00
2024-04-12T04:10:32.437Z,779.00
2024-04-12T04:11:32.466Z,778.00
2024-04-12T04:12:32.524Z,777.00
2024-04-12T04:13:32.619Z,776.00
2024-04-12T04:14:32.682Z,779.00
2024-04-12T04:15:32.724Z,778.00
2024-04-12T04:16:32.783Z,783.00
2024-04-12T04:17:40.148Z,792.00
2024-04-12T04:18:40.218Z,789.00
2024-04-12T04:19:40.072Z,787.00
2024-04-12T04:20:40.077Z,786.00
2024-04-12T04:21:40.082Z,792.00
2024-04-12T04:22:40.091Z,794.00
2024-04-12T04:23:40.083Z,793.00
2024-04-12T04:24:40.084Z,788.00
2024-04-12T04:25:40.133Z,786.00
2024-04-12T04:26:40.173Z,782.00
2024-04-12T04:27:40.229Z,783.00
2024-04-12T04:28:40.069Z,785.00
2024-04-12T04:29:40.100Z,790.00
2024-04-12T04:30:40.111Z,792.00
2024-04-12T04:31:40.082Z,788.00
2024-04-12T04:32:40.306Z,784.00
2024-04-12T04:33:40.273Z,788.00
2024-04-12T04:34:40.071Z,788.00
2024-04-12T04:35:40.102Z,787.00
2024-04-12T04:36:40.104Z,784.00
2024-04-12T04:37:40.260Z,785.00
2024-04-12T04:38:40.144Z,784.00
2024-04-12T04:39:40.134Z,783.00
2024-04-12T04:40:40.157Z,778.00
2024-04-12T04:41:40.207Z,781.00
2024-04-12T04:42:40.125Z,784.00
2024-04-12T04:43:40.137Z,784.00
2024-04-12T04:44:40.154Z,783.00
2024-04-12T04:45:40.322Z,784.00
2024-04-12T04:46:40.255Z,784.00
2024-04-12T04:47:40.469Z,785.00
2024-04-12T04:48:40.627Z,787.00
2024-04-12T04:49:40.452Z,789.00
2024-04-12T04:50:40.543Z,789.00
2024-04-12T04:51:40.609Z,786.00
2024-04-12T04:52:40.650Z,783.00
2024-04-12T04:53:40.760Z,781.00
2024-04-12T04:54:40.868Z,782.00
2024-04-12T04:55:40.882Z,783.00
2024-04-12T04:56:40.988Z,786.00
2024-04-12T04:57:41.050Z,786.00
2024-04-12T04:58:41.154Z,786.00
2024-04-12T04:59:41.174Z,784.00
2024-04-12T05:00:41.291Z,786.00
2024-04-12T05:01:41.348Z,787.00
2024-04-12T05:02:41.370Z,789.00
2024-04-12T05:03:41.472Z,791.00
2024-04-12T05:04:41.502Z,787.00
2024-04-12T05:05:41.595Z,791.00
2024-04-12T05:06:44.942Z,788.00
2024-04-12T05:07:41.628Z,786.00
2024-04-12T05:08:41.650Z,788.00
2024-04-12T05:09:41.636Z,786.00
2024-04-12T05:10:41.646Z,788.00
2024-04-12T05:11:41.818Z,789.00
2024-04-12T05:12:41.735Z,787.00
2024-04-12T05:13:41.670Z,787.00
2024-04-12T05:14:41.684Z,788.00
2024-04-12T05:15:41.897Z,787.00
2024-04-12T05:16:41.663Z,787.00
2024-04-12T05:17:41.808Z,788.00
2024-04-12T05:18:41.850Z,792.00
2024-04-12T05:19:41.970Z,793.00
2024-04-12T05:20:41.695Z,790.00
2024-04-12T05:21:41.670Z,788.00
2024-04-12T05:22:41.669Z,789.00
2024-04-12T05:23:41.672Z,794.00
2024-04-12T05:24:41.858Z,792.00
2024-04-12T05:25:41.837Z,789.00
2024-04-12T05:26:41.689Z,791.00
2024-04-12T05:27:41.674Z,793.00
2024-04-12T05:28:41.668Z,789.00
2024-04-12T05:29:41.715Z,791.00
2024-04-12T05:30:41.685Z,794.00
2024-04-12T05:31:41.673Z,798.00
2024-04-12T05:32:41.809Z,798.00
2024-04-12T05:33:41.715Z,848.00
2024-04-12T05:34:41.674Z,824.00
2024-04-12T05:35:41.772Z,826.00
2024-04-12T05:36:41.682Z,828.00
2024-04-12T05:37:41.690Z,831.00
2024-04-12T05:38:41.771Z,835.00
2024-04-12T05:39:41.684Z,850.00
2024-04-12T05:40:41.695Z,865.00
2024-04-12T05:41:41.772Z,873.00
2024-04-12T05:42:41.686Z,887.00
2024-04-12T05:43:41.694Z,902.00
2024-04-12T05:44:41.768Z,914.00
2024-04-12T05:45:41.751Z,915.00
2024-04-12T05:46:41.713Z,910.00
2024-04-12T05:47:42.026Z,895.00
2024-04-12T05:48:41.762Z,841.00
2024-04-12T05:49:41.710Z,833.00
2024-04-12T05:50:41.794Z,841.00
2024-04-12T05:51:41.725Z,858.00
2024-04-12T05:52:41.803Z,870.00
2024-04-12T05:53:41.847Z,782.00
2024-04-12T05:54:41.847Z,747.00
2024-04-12T05:55:41.846Z,723.00
2024-04-12T05:56:41.945Z,729.00
2024-04-12T05:57:41.984Z,743.00
2024-04-12T05:58:42.024Z,768.00
2024-04-12T05:59:42.278Z,757.00
2024-04-12T06:00:42.201Z,729.00
2024-04-12T06:01:42.327Z,761.00
2024-04-12T06:02:42.459Z,833.00
2024-04-12T06:03:42.498Z,855.00
2024-04-12T06:04:42.528Z,827.00
2024-04-12T06:05:42.620Z,865.00
2024-04-12T06:06:42.757Z,862.00
2024-04-12T06:07:42.829Z,910.00
2024-04-12T06:08:42.924Z,913.00
2024-04-12T06:09:42.988Z,976.00
2024-04-12T06:10:43.039Z,952.00
2024-04-12T06:11:43.382Z,973.00
2024-04-12T06:12:43.219Z,972.00
2024-04-12T06:13:43.262Z,1044.00
2024-04-12T06:14:43.320Z,1042.00
2024-04-12T06:15:43.390Z,1059.00
2024-04-12T06:16:43.552Z,1052.00
2024-04-12T06:17:43.626Z,1135.00
2024-04-12T06:18:43.641Z,1132.00
2024-04-12T06:19:43.799Z,1159.00
2024-04-12T06:20:43.887Z,1171.00
2024-04-12T06:21:49.009Z,1170.00
2024-04-12T06:22:43.981Z,1140.00
2024-04-12T06:23:43.995Z,1168.00
2024-04-12T06:24:44.172Z,1198.00
2024-04-12T06:25:43.997Z,1203.00
2024-04-12T06:26:44.035Z,1199.00
2024-04-12T06:27:43.996Z,1186.00
2024-04-12T06:28:44.007Z,1170.00
2024-04-12T06:29:44.110Z,1171.00
2024-04-12T06:30:44.166Z,1204.00
2024-04-12T06:31:44.270Z,1121.00
2024-04-12T06:32:44.427Z,1128.00
2024-04-12T06:33:44.517Z,1120.00
2024-04-12T06:34:44.575Z,1154.00
2024-04-12T06:35:44.704Z,1148.00
2024-04-12T06:36:44.773Z,1143.00
2024-04-12T06:37:44.861Z,1196.00
2024-04-12T06:38:45.123Z,1199.00
2024-04-12T06:39:45.126Z,1182.00
2024-04-12T06:40:45.186Z,1179.00
2024-04-12T06:41:45.350Z,1251.00
2024-04-12T06:42:45.387Z,1261.00
2024-04-12T06:43:45.491Z,1201.00
2024-04-12T06:44:45.606Z,1189.00
2024-04-12T06:45:45.696Z,1144.00
2024-04-12T06:46:45.871Z,1108.00
2024-04-12T06:47:46.029Z,1243.00
2024-04-12T06:48:46.128Z,1243.00
2024-04-12T06:49:46.616Z,1269.00
2024-04-12T06:50:46.156Z,1169.00
2024-04-12T06:51:46.181Z,1262.00
2024-04-12T06:52:46.200Z,1124.00
2024-04-12T06:53:46.883Z,1055.00
2024-04-12T06:54:46.381Z,932.00
2024-04-12T06:55:46.305Z,881.00
2024-04-12T06:56:46.420Z,903.00
2024-04-12T06:57:46.394Z,957.00
2024-04-12T06:58:46.483Z,975.00
2024-04-12T06:59:46.592Z,1071.00
2024-04-12T07:00:46.661Z,1078.00
2024-04-12T07:01:46.752Z,1091.00
2024-04-12T07:02:46.974Z,1209.00
2024-04-12T07:03:47.212Z,1216.00
2024-04-12T07:04:47.107Z,1211.00
2024-04-12T07:05:47.212Z,1217.00
2024-04-12T07:06:47.294Z,1220.00
2024-04-12T07:07:47.406Z,1232.00
2024-04-12T07:08:47.488Z,1250.00
2024-04-12T07:09:47.632Z,1268.00
2024-04-12T07:10:47.663Z,1316.00
2024-04-12T07:11:47.777Z,1329.00
2024-04-12T07:12:47.787Z,1343.00
2024-04-12T07:13:47.854Z,1360.00
2024-04-12T07:14:47.966Z,1377.00
2024-04-12T07:15:47.984Z,1393.00
2024-04-12T07:16:48.120Z,1415.00
2024-04-12T07:17:48.171Z,1427.00
2024-04-12T07:18:48.198Z,1440.00
2024-04-12T07:19:48.220Z,1459.00
2024-04-12T07:20:48.321Z,1472.00
2024-04-12T07:21:48.400Z,1487.00
2024-04-12T07:22:48.420Z,1500.00
2024-04-12T07:23:48.503Z,1515.00
2024-04-12T07:24:48.500Z,1546.00
2024-04-12T07:25:48.552Z,1551.00
2024-04-12T07:26:48.728Z,1557.00
2024-04-12T07:27:48.705Z,1565.00
2024-04-12T07:28:48.747Z,1588.00
2024-04-12T07:29:48.901Z,1606.00
2024-04-12T07:30:48.926Z,1617.00
2024-04-12T07:31:48.942Z,1623.00
2024-04-12T07:32:49.086Z,1617.00
2024-04-12T07:33:49.154Z,1400.00
2024-04-12T07:34:49.164Z,1361.00
2024-04-12T07:35:49.206Z,1254.00
2024-04-12T07:36:49.248Z,1413.00
2024-04-12T07:37:49.294Z,1443.00
2024-04-12T07:38:49.373Z,1538.00
2024-04-12T07:39:49.405Z,1445.00
2024-04-12T07:40:49.473Z,1419.00
2024-04-12T07:41:49.600Z,1292.00
2024-04-12T07:42:49.663Z,1419.00
2024-04-12T07:43:49.647Z,1338.00
2024-04-12T07:44:49.823Z,1314.00
2024-04-12T07:45:49.826Z,1261.00
2024-04-12T07:46:49.864Z,1217.00
2024-04-12T07:47:50.089Z,1149.00
2024-04-12T07:48:50.232Z,1110.00
2024-04-12T07:49:50.153Z,1079.00
2024-04-12T07:50:50.297Z,1016.00
2024-04-12T07:51:50.393Z,972.00
2024-04-12T07:52:50.487Z,923.00
2024-04-12T07:53:50.586Z,905.00
2024-04-12T07:54:50.699Z,885.00
2024-04-12T07:55:53.428Z,866.00
2024-04-12T07:56:50.849Z,860.00
2024-04-12T07:57:50.840Z,849.00
2024-04-12T07:58:50.832Z,823.00
2024-04-12T07:59:50.856Z,817.00
2024-04-12T08:00:50.842Z,809.00
2024-04-12T08:01:50.869Z,793.00
2024-04-12T08:02:51.019Z,784.00
2024-04-12T08:03:51.034Z,779.00
2024-04-12T08:04:50.845Z,773.00
2024-04-12T08:05:50.902Z,765.00
2024-04-12T08:06:50.861Z,746.00
2024-04-12T08:07:50.843Z,735.00
2024-04-12T08:08:50.907Z,727.00
2024-04-12T08:09:50.866Z,721.00
2024-04-12T08:10:50.874Z,718.00
2024-04-12T08:11:50.888Z,716.00
2024-04-12T08:12:50.883Z,714.00
2024-04-12T08:13:50.882Z,708.00
2024-04-12T08:14:50.888Z,702.00
2024-04-12T08:15:50.879Z,694.00
2024-04-12T08:16:50.919Z,688.00
2024-04-12T08:17:51.110Z,671.00
2024-04-12T08:18:50.948Z,667.00
2024-04-12T08:19:50.909Z,661.00
2024-04-12T08:20:50.898Z,658.00
2024-04-12T08:21:50.881Z,655.00
2024-04-12T08:22:50.900Z,650.00
2024-04-12T08:23:50.961Z,640.00
2024-04-12T08:24:51.011Z,639.00
2024-04-12T08:25:50.879Z,636.00
2024-04-12T08:26:50.917Z,631.00
2024-04-12T08:27:51.002Z,626.00
2024-04-12T08:28:51.133Z,621.00
2024-04-12T08:29:51.230Z,619.00
2024-04-12T08:30:51.330Z,611.00
2024-04-12T08:31:51.582Z,608.00
2024-04-12T08:32:51.734Z,605.00
2024-04-12T08:33:52.752Z,605.00
2024-04-12T08:34:51.803Z,604.00
2024-04-12T08:35:51.935Z,602.00
2024-04-12T08:36:52.014Z,601.00
2024-04-12T08:37:55.041Z,596.00
2024-04-12T08:38:52.169Z,596.00
2024-04-12T08:39:52.129Z,596.00
2024-04-12T08:40:52.154Z,594.00
2024-04-12T08:41:52.207Z,592.00
2024-04-12T08:42:52.133Z,591.00
2024-04-12T08:43:52.166Z,587.00
2024-04-12T08:44:52.160Z,585.00
2024-04-12T08:45:52.153Z,581.00
2024-04-12T08:46:52.170Z,578.00
2024-04-12T08:47:52.208Z,574.00
2024-04-12T08:48:52.266Z,573.00
2024-04-12T08:49:59.540Z,579.00
2024-04-12T08:50:59.563Z,575.00
2024-04-12T08:51:59.585Z,575.00
2024-04-12T08:52:59.569Z,570.00
2024-04-12T08:53:59.610Z,576.00
2024-04-12T08:54:59.589Z,572.00
2024-04-12T08:55:59.606Z,572.00
2024-04-12T08:56:59.636Z,573.00
2024-04-12T08:57:59.742Z,571.00
2024-04-12T08:58:59.837Z,573.00
2024-04-12T09:00:00.361Z,571.00
2024-04-12T09:01:00.050Z,570.00
2024-04-12T09:02:00.062Z,570.00
2024-04-12T09:03:01.296Z,571.00
2024-04-12T09:04:00.183Z,571.00
2024-04-12T09:05:00.211Z,593.00
2024-04-12T09:06:00.283Z,593.00
2024-04-12T09:07:00.356Z,576.00
2024-04-12T09:08:02.048Z,571.00
2024-04-12T09:09:00.514Z,569.00
2024-04-12T09:10:00.467Z,565.00
2024-04-12T09:11:04.004Z,561.00
2024-04-12T09:12:00.559Z,554.00
2024-04-12T09:13:00.499Z,554.00
2024-04-12T09:14:00.485Z,553.00
2024-04-12T09:15:00.688Z,554.00
2024-04-12T09:16:00.468Z,552.00
2024-04-12T09:17:00.495Z,549.00
2024-04-12T09:18:00.632Z,547.00
2024-04-12T09:19:00.631Z,543.00
2024-04-12T09:20:00.498Z,544.00
2024-04-12T09:21:02.804Z,542.00
2024-04-12T09:22:00.502Z,538.00
2024-04-12T09:23:00.491Z,538.00
2024-04-12T09:24:00.580Z,536.00
2024-04-12T09:25:00.547Z,540.00
2024-04-12T09:26:01.745Z,542.00
2024-04-12T09:27:00.582Z,542.00
2024-04-12T09:28:00.530Z,540.00
2024-04-12T09:29:00.546Z,540.00
2024-04-12T09:30:00.597Z,540.00
2024-04-12T09:31:00.619Z,541.00
2024-04-12T09:32:00.560Z,541.00
2024-04-12T09:33:00.677Z,541.00
2024-04-12T09:34:00.888Z,539.00
2024-04-12T09:35:00.639Z,537.00
2024-04-12T09:36:00.743Z,537.00
2024-04-12T09:37:00.769Z,540.00
2024-04-12T09:38:00.901Z,537.00
2024-04-12T09:39:01.079Z,539.00
2024-04-12T09:40:01.121Z,539.00
2024-04-12T09:41:01.213Z,538.00
2024-04-12T09:42:01.420Z,538.00
2024-04-12T09:43:01.503Z,540.00
2024-04-12T09:44:01.559Z,540.00
2024-04-12T09:45:01.876Z,538.00
2024-04-12T09:46:01.822Z,536.00
2024-04-12T09:47:01.986Z,541.00
2024-04-12T09:48:02.181Z,550.00
2024-04-12T09:49:02.246Z,587.00
2024-04-12T09:50:02.238Z,640.00
2024-04-12T09:51:02.399Z,635.00
2024-04-12T09:52:02.465Z,669.00
2024-04-12T09:53:02.544Z,665.00
2024-04-12T09:54:02.670Z,678.00
2024-04-12T09:55:02.762Z,677.00
2024-04-12T09:56:03.799Z,683.00
2024-04-12T09:57:03.027Z,733.00
2024-04-12T09:58:02.932Z,736.00
2024-04-12T09:59:02.991Z,731.00
2024-04-12T10:00:03.037Z,727.00
2024-04-12T10:01:03.119Z,774.00
2024-04-12T10:02:03.174Z,826.00
2024-04-12T10:03:03.339Z,857.00
2024-04-12T10:04:03.406Z,849.00
2024-04-12T10:05:03.419Z,842.00
2024-04-12T10:06:03.517Z,894.00
2024-04-12T10:07:03.565Z,852.00
2024-04-12T10:08:03.618Z,910.00
2024-04-12T10:09:03.685Z,957.00
2024-04-12T10:10:03.796Z,959.00
2024-04-12T10:11:03.817Z,854.00
2024-04-12T10:12:03.953Z,900.00
2024-04-12T10:13:03.964Z,877.00
2024-04-12T10:14:03.962Z,915.00
2024-04-12T10:15:04.050Z,976.00
2024-04-12T10:16:04.136Z,922.00
2024-04-12T10:17:08.549Z,1005.00
2024-04-12T10:18:04.537Z,914.00
2024-04-12T10:19:04.325Z,982.00
2024-04-12T10:20:04.178Z,953.00
2024-04-12T10:21:04.234Z,1003.00
2024-04-12T10:22:04.253Z,914.00
2024-04-12T10:23:04.186Z,981.00
2024-04-12T10:24:04.228Z,1032.00
2024-04-12T10:25:04.192Z,1023.00
2024-04-12T10:26:04.177Z,1028.00
2024-04-12T10:27:08.759Z,1036.00
2024-04-12T10:28:04.232Z,1039.00
2024-04-12T10:29:04.196Z,1050.00
2024-04-12T10:30:04.245Z,1061.00
2024-04-12T10:31:04.252Z,1068.00
2024-04-12T10:32:04.273Z,1027.00
2024-04-12T10:33:04.579Z,1050.00
2024-04-12T10:34:04.384Z,1087.00
2024-04-12T10:35:04.190Z,1081.00
2024-04-12T10:36:04.248Z,1086.00
2024-04-12T10:37:04.185Z,1084.00
2024-04-12T10:38:04.223Z,1093.00
2024-04-12T10:39:04.281Z,986.00
2024-04-12T10:40:04.250Z,991.00
2024-04-12T10:41:04.251Z,932.00
2024-04-12T10:42:04.274Z,1026.00
2024-04-12T10:43:04.226Z,931.00
2024-04-12T10:44:04.236Z,943.00
2024-04-12T10:45:04.387Z,976.00
2024-04-12T10:46:04.242Z,1029.00
2024-04-12T10:47:04.270Z,972.00
2024-04-12T10:48:04.288Z,1037.00
2024-04-12T10:49:04.228Z,1066.00
2024-04-12T10:50:04.231Z,1065.00
2024-04-12T10:51:04.258Z,1064.00
2024-04-12T10:52:04.220Z,1078.00
2024-04-12T10:53:04.229Z,1100.00
2024-04-12T10:54:04.242Z,1140.00
2024-04-12T10:55:05.280Z,1192.00
2024-04-12T10:56:04.477Z,1388.00
2024-04-12T10:57:07.338Z,1560.00
2024-04-12T10:58:04.237Z,1276.00
2024-04-12T10:59:04.247Z,1315.00
2024-04-12T11:00:04.277Z,1323.00
2024-04-12T11:01:04.304Z,1311.00
2024-04-12T11:02:04.315Z,1290.00
2024-04-12T11:03:08.911Z,1276.00
2024-04-12T11:04:05.447Z,1273.00
2024-04-12T11:05:04.296Z,1269.00
2024-04-12T11:06:04.387Z,1263.00
2024-04-12T11:07:04.266Z,1264.00
2024-04-12T11:08:12.200Z,1269.00
2024-04-12T11:09:05.286Z,1262.00
2024-04-12T11:10:04.283Z,1262.00
2024-04-12T11:11:04.276Z,1257.00
2024-04-12T11:12:04.324Z,1255.00
2024-04-12T11:13:04.278Z,1253.00
2024-04-12T11:14:04.269Z,1253.00
2024-04-12T11:15:04.302Z,1256.00
2024-04-12T11:16:04.299Z,1257.00
2024-04-12T11:17:04.423Z,1255.00
2024-04-12T11:18:04.776Z,1257.00
2024-04-12T11:19:04.834Z,1257.00
2024-04-12T11:20:04.780Z,1253.00
2024-04-12T11:21:04.938Z,1246.00
2024-04-12T11:22:05.039Z,1256.00
2024-04-12T11:23:05.138Z,1258.00
2024-04-12T11:24:05.302Z,1253.00
2024-04-12T11:25:05.354Z,1255.00
2024-04-12T11:26:05.560Z,1254.00
2024-04-12T11:27:05.946Z,1250.00
2024-04-12T11:28:05.766Z,1248.00
2024-04-12T11:29:05.884Z,1250.00
2024-04-12T11:30:06.075Z,1248.00
2024-04-12T11:31:06.145Z,1251.00
2024-04-12T11:32:06.259Z,1249.00
2024-04-12T11:33:06.820Z,1251.00
2024-04-12T11:34:11.769Z,1248.00
2024-04-12T11:35:07.508Z,1247.00
2024-04-12T11:36:06.516Z,1240.00
2024-04-12T11:37:06.410Z,1243.00
2024-04-12T11:38:06.430Z,1241.00
2024-04-12T11:39:06.437Z,1240.00
2024-04-12T11:40:06.415Z,1240.00
2024-04-12T11:41:06.420Z,1237.00
2024-04-12T11:42:06.598Z,1240.00
2024-04-12T11:43:06.669Z,1240.00
2024-04-12T11:44:06.777Z,1238.00
2024-04-12T11:45:06.969Z,1237.00
2024-04-12T11:46:07.038Z,1235.00
2024-04-12T11:47:07.250Z,1233.00
2024-04-12T11:48:07.465Z,1232.00
2024-04-12T11:49:07.759Z,1231.00
2024-04-12T11:50:07.571Z,1234.00
2024-04-12T11:51:07.709Z,1235.00
2024-04-12T11:52:07.815Z,1236.00
2024-04-12T11:53:07.962Z,1232.00
2024-04-12T11:54:08.188Z,1232.00
2024-04-12T11:55:08.252Z,1226.00
2024-04-12T11:56:08.349Z,1227.00
2024-04-12T11:57:08.550Z,1224.00
2024-04-12T11:58:08.602Z,1221.00
2024-04-12T11:59:08.716Z,1223.00
2024-04-12T12:00:09.026Z,1224.00
2024-04-12T12:01:09.002Z,1223.00
2024-04-12T12:02:09.155Z,1229.00
2024-04-12T12:03:09.287Z,1229.00
2024-04-12T12:04:09.409Z,1229.00
2024-04-12T12:05:09.480Z,1229.00
2024-04-12T12:06:09.693Z,1227.00
2024-04-12T12:07:12.027Z,1237.00
2024-04-12T12:08:09.911Z,1236.00
2024-04-12T12:09:10.001Z,1234.00
2024-04-12T12:10:10.034Z,1232.00
2024-04-12T12:11:10.054Z,1229.00
2024-04-12T12:12:10.192Z,1228.00
2024-04-12T12:13:10.179Z,1257.00
2024-04-12T12:14:10.234Z,1262.00
2024-04-12T12:15:10.345Z,1260.00
2024-04-12T12:16:10.336Z,1257.00
2024-04-12T12:17:10.414Z,1263.00
2024-04-12T12:18:10.586Z,1265.00
2024-04-12T12:19:10.523Z,1268.00
2024-04-12T12:20:10.610Z,1277.00
2024-04-12T12:21:10.753Z,1284.00
2024-04-12T12:22:10.815Z,1301.00
2024-04-12T12:23:10.962Z,1290.00